sensor_id;sensor_type;location;lat;lon;timestamp;P1;durP1;ratioP1;P2;durP2;ratioP2
84270;SDS011;74614;50.032;19.566;2023-12-29T00:01:21;36;;;24;;
84270;SDS011;74614;50.032;19.566;2023-12-29T00:03:22;33;;;22;;
84270;SDS011;74614;50.032;19.566;2023-12-29T00:05:21;32;;;21;;
84270;SDS011;74614;50.032;19.566;2023-12-29T00:07:23;33;;;22;;
84270;SDS011;74614;50.032;19.566;2023-12-29T00:09:22;34;;;24;;
84270;SDS011;74614;50.032;19.566;2023-12-29T00:11:23;29;;;20;;
84270;SDS011;74614;50.032;19.566;2023-12-29T00:13:26;32;;;22;;
84270;SDS011;74614;50.032;19.566;2023-12-29T00:15:24;30;;;20;;
84270;SDS011;74614;50.032;19.566;2023-12-29T00:17:21;30;;;20;;
84270;SDS011;74614;50.032;19.566;2023-12-29T00:19:23;30;;;19;;
84270;SDS011;74614;50.032;19.566;2023-12-29T00:21:25;32;;;21;;
84270;SDS011;74614;50.032;19.566;2023-12-29T00:23:23;30;;;20;;
84270;SDS011;74614;50.032;19.566;2023-12-29T00:25:24;29;;;21;;
84270;SDS011;74614;50.032;19.566;2023-12-29T00:27:24;32;;;21;;
84270;SDS011;74614;50.032;19.566;2023-12-29T00:29:24;29;;;20;;
84270;SDS011;74614;50.032;19.566;2023-12-29T00:31:23;30;;;20;;
84270;SDS011;74614;50.032;19.566;2023-12-29T00:33:23;30;;;20;;
84270;SDS011;74614;50.032;19.566;2023-12-29T00:35:22;29;;;19;;
84270;SDS011;74614;50.032;19.566;2023-12-29T00:37:22;30;;;20;;
84270;SDS011;74614;50.032;19.566;2023-12-29T00:39:33;32;;;21;;
84270;SDS011;74614;50.032;19.566;2023-12-29T00:42:23;28;;;20;;
84270;SDS011;74614;50.032;19.566;2023-12-29T00:44:21;33;;;21;;
84270;SDS011;74614;50.032;19.566;2023-12-29T00:46:23;32;;;22;;
84270;SDS011;74614;50.032;19.566;2023-12-29T00:48:21;31;;;22;;
84270;SDS011;74614;50.032;19.566;2023-12-29T00:50:23;31;;;22;;
84270;SDS011;74614;50.032;19.566;2023-12-29T00:52:22;30;;;20;;
84270;SDS011;74614;50.032;19.566;2023-12-29T00:54:26;32;;;21;;
84270;SDS011;74614;50.032;19.566;2023-12-29T00:56:24;32;;;21;;
84270;SDS011;74614;50.032;19.566;2023-12-29T00:58:21;31;;;21;;
84270;SDS011;74614;50.032;19.566;2023-12-29T01:00:23;28;;;21;;
84270;SDS011;74614;50.032;19.566;2023-12-29T01:02:21;29;;;20;;
84270;SDS011;74614;50.032;19.566;2023-12-29T01:04:22;29;;;20;;
84270;SDS011;74614;50.032;19.566;2023-12-29T01:06:26;27;;;18;;
84270;SDS011;74614;50.032;19.566;2023-12-29T01:08:21;28;;;19;;
84270;SDS011;74614;50.032;19.566;2023-12-29T01:10:21;27;;;20;;
84270;SDS011;74614;50.032;19.566;2023-12-29T01:12:22;28;;;20;;
84270;SDS011;74614;50.032;19.566;2023-12-29T01:14:22;28;;;20;;
84270;SDS011;74614;50.032;19.566;2023-12-29T01:16:21;29;;;20;;
84270;SDS011;74614;50.032;19.566;2023-12-29T01:18:24;30;;;20;;
84270;SDS011;74614;50.032;19.566;2023-12-29T01:20:23;29;;;20;;
84270;SDS011;74614;50.032;19.566;2023-12-29T01:22:22;30;;;20;;
84270;SDS011;74614;50.032;19.566;2023-12-29T01:24:23;32;;;22;;
84270;SDS011;74614;50.032;19.566;2023-12-29T01:26:22;30;;;21;;
84270;SDS011;74614;50.032;19.566;2023-12-29T01:28:21;31;;;21;;
84270;SDS011;74614;50.032;19.566;2023-12-29T01:30:27;28;;;20;;
84270;SDS011;74614;50.032;19.566;2023-12-29T01:32:28;31;;;22;;
84270;SDS011;74614;50.032;19.566;2023-12-29T01:34:25;30;;;21;;
84270;SDS011;74614;50.032;19.566;2023-12-29T01:36:23;31;;;21;;
84270;SDS011;74614;50.032;19.566;2023-12-29T01:38:31;28;;;20;;
84270;SDS011;74614;50.032;19.566;2023-12-29T01:40:23;27;;;20;;
84270;SDS011;74614;50.032;19.566;2023-12-29T01:42:23;29;;;21;;
84270;SDS011;74614;50.032;19.566;2023-12-29T01:44:23;29;;;20;;
84270;SDS011;74614;50.032;19.566;2023-12-29T01:46:23;31;;;22;;
84270;SDS011;74614;50.032;19.566;2023-12-29T01:48:21;32;;;23;;
84270;SDS011;74614;50.032;19.566;2023-12-29T01:50:24;32;;;23;;
84270;SDS011;74614;50.032;19.566;2023-12-29T01:52:22;33;;;23;;
84270;SDS011;74614;50.032;19.566;2023-12-29T01:54:27;29;;;20;;
84270;SDS011;74614;50.032;19.566;2023-12-29T01:56:24;33;;;22;;
84270;SDS011;74614;50.032;19.566;2023-12-29T01:58:23;36;;;24;;
84270;SDS011;74614;50.032;19.566;2023-12-29T02:00:23;36;;;24;;
84270;SDS011;74614;50.032;19.566;2023-12-29T02:02:22;37;;;24;;
84270;SDS011;74614;50.032;19.566;2023-12-29T02:04:22;34;;;25;;
84270;SDS011;74614;50.032;19.566;2023-12-29T02:06:21;34;;;24;;
84270;SDS011;74614;50.032;19.566;2023-12-29T02:08:23;33;;;22;;
84270;SDS011;74614;50.032;19.566;2023-12-29T02:10:21;30;;;22;;
84270;SDS011;74614;50.032;19.566;2023-12-29T02:12:26;30;;;21;;
84270;SDS011;74614;50.032;19.566;2023-12-29T02:14:22;35;;;24;;
84270;SDS011;74614;50.032;19.566;2023-12-29T02:16:22;32;;;22;;
84270;SDS011;74614;50.032;19.566;2023-12-29T02:19:25;32;;;21;;
84270;SDS011;74614;50.032;19.566;2023-12-29T02:22:21;30;;;21;;
84270;SDS011;74614;50.032;19.566;2023-12-29T02:24:21;31;;;21;;
84270;SDS011;74614;50.032;19.566;2023-12-29T02:26:23;31;;;22;;
84270;SDS011;74614;50.032;19.566;2023-12-29T02:28:24;31;;;21;;
84270;SDS011;74614;50.032;19.566;2023-12-29T02:30:26;28;;;20;;
84270;SDS011;74614;50.032;19.566;2023-12-29T02:33:22;29;;;20;;
84270;SDS011;74614;50.032;19.566;2023-12-29T02:35:21;28;;;20;;
84270;SDS011;74614;50.032;19.566;2023-12-29T02:37:19;32;;;22;;
84270;SDS011;74614;50.032;19.566;2023-12-29T02:39:22;32;;;25;;
84270;SDS011;74614;50.032;19.566;2023-12-29T02:41:19;31;;;22;;
84270;SDS011;74614;50.032;19.566;2023-12-29T02:43:23;27;;;19;;
84270;SDS011;74614;50.032;19.566;2023-12-29T02:45:19;24;;;18;;
84270;SDS011;74614;50.032;19.566;2023-12-29T02:47:20;25;;;16;;
84270;SDS011;74614;50.032;19.566;2023-12-29T02:49:20;28;;;20;;
84270;SDS011;74614;50.032;19.566;2023-12-29T02:51:20;28;;;21;;
84270;SDS011;74614;50.032;19.566;2023-12-29T02:53:20;27;;;20;;
84270;SDS011;74614;50.032;19.566;2023-12-29T02:55:20;28;;;20;;
84270;SDS011;74614;50.032;19.566;2023-12-29T02:57:20;30;;;21;;
84270;SDS011;74614;50.032;19.566;2023-12-29T02:59:21;29;;;22;;
84270;SDS011;74614;50.032;19.566;2023-12-29T03:01:19;28;;;22;;
84270;SDS011;74614;50.032;19.566;2023-12-29T03:03:21;29;;;21;;
84270;SDS011;74614;50.032;19.566;2023-12-29T03:05:22;28;;;21;;
84270;SDS011;74614;50.032;19.566;2023-12-29T03:07:21;28;;;19;;
84270;SDS011;74614;50.032;19.566;2023-12-29T03:09:18;27;;;20;;
84270;SDS011;74614;50.032;19.566;2023-12-29T03:11:20;29;;;20;;
84270;SDS011;74614;50.032;19.566;2023-12-29T03:13:19;29;;;21;;
84270;SDS011;74614;50.032;19.566;2023-12-29T03:15:22;29;;;22;;
84270;SDS011;74614;50.032;19.566;2023-12-29T03:17:18;35;;;23;;
84270;SDS011;74614;50.032;19.566;2023-12-29T03:19:21;32;;;22;;
84270;SDS011;74614;50.032;19.566;2023-12-29T03:21:21;32;;;21;;
84270;SDS011;74614;50.032;19.566;2023-12-29T03:23:21;19;;;14;;
84270;SDS011;74614;50.032;19.566;2023-12-29T03:25:18;22;;;15;;
84270;SDS011;74614;50.032;19.566;2023-12-29T03:27:21;13;;;10;;
84270;SDS011;74614;50.032;19.566;2023-12-29T03:29:19;14;;;10;;
84270;SDS011;74614;50.032;19.566;2023-12-29T03:31:20;13;;;9;;
84270;SDS011;74614;50.032;19.566;2023-12-29T03:33:20;12;;;8;;
84270;SDS011;74614;50.032;19.566;2023-12-29T03:35:21;11;;;9;;
84270;SDS011;74614;50.032;19.566;2023-12-29T03:37:20;14;;;10;;
84270;SDS011;74614;50.032;19.566;2023-12-29T03:39:21;16;;;11;;
84270;SDS011;74614;50.032;19.566;2023-12-29T03:41:20;18;;;13;;
84270;SDS011;74614;50.032;19.566;2023-12-29T03:43:21;17;;;14;;
84270;SDS011;74614;50.032;19.566;2023-12-29T03:45:20;16;;;11;;
84270;SDS011;74614;50.032;19.566;2023-12-29T03:47:22;16;;;13;;
84270;SDS011;74614;50.032;19.566;2023-12-29T03:49:19;17;;;12;;
84270;SDS011;74614;50.032;19.566;2023-12-29T03:51:21;17;;;13;;
84270;SDS011;74614;50.032;19.566;2023-12-29T03:53:19;20;;;14;;
84270;SDS011;74614;50.032;19.566;2023-12-29T03:55:21;20;;;15;;
84270;SDS011;74614;50.032;19.566;2023-12-29T03:57:19;21;;;16;;
84270;SDS011;74614;50.032;19.566;2023-12-29T03:59:21;25;;;19;;
84270;SDS011;74614;50.032;19.566;2023-12-29T04:01:19;20;;;14;;
84270;SDS011;74614;50.032;19.566;2023-12-29T04:03:21;20;;;15;;
84270;SDS011;74614;50.032;19.566;2023-12-29T04:05:19;31;;;22;;
84270;SDS011;74614;50.032;19.566;2023-12-29T04:07:24;28;;;21;;
84270;SDS011;74614;50.032;19.566;2023-12-29T04:09:19;30;;;23;;
84270;SDS011;74614;50.032;19.566;2023-12-29T04:11:20;29;;;21;;
84270;SDS011;74614;50.032;19.566;2023-12-29T04:13:19;30;;;22;;
84270;SDS011;74614;50.032;19.566;2023-12-29T04:15:20;30;;;21;;
84270;SDS011;74614;50.032;19.566;2023-12-29T04:17:19;31;;;21;;
84270;SDS011;74614;50.032;19.566;2023-12-29T04:19:21;28;;;21;;
84270;SDS011;74614;50.032;19.566;2023-12-29T04:21:19;27;;;19;;
84270;SDS011;74614;50.032;19.566;2023-12-29T04:23:21;27;;;18;;
84270;SDS011;74614;50.032;19.566;2023-12-29T04:25:19;26;;;19;;
84270;SDS011;74614;50.032;19.566;2023-12-29T04:27:23;25;;;18;;
84270;SDS011;74614;50.032;19.566;2023-12-29T04:29:18;25;;;18;;
84270;SDS011;74614;50.032;19.566;2023-12-29T04:31:21;25;;;18;;
84270;SDS011;74614;50.032;19.566;2023-12-29T04:33:18;27;;;20;;
84270;SDS011;74614;50.032;19.566;2023-12-29T04:35:21;28;;;21;;
84270;SDS011;74614;50.032;19.566;2023-12-29T04:37:18;28;;;19;;
84270;SDS011;74614;50.032;19.566;2023-12-29T04:39:21;25;;;18;;
84270;SDS011;74614;50.032;19.566;2023-12-29T04:41:19;26;;;20;;
84270;SDS011;74614;50.032;19.566;2023-12-29T04:43:26;26;;;19;;
84270;SDS011;74614;50.032;19.566;2023-12-29T04:45:19;24;;;19;;
84270;SDS011;74614;50.032;19.566;2023-12-29T04:47:21;24;;;19;;
84270;SDS011;74614;50.032;19.566;2023-12-29T04:49:20;25;;;19;;
84270;SDS011;74614;50.032;19.566;2023-12-29T04:51:24;27;;;19;;
84270;SDS011;74614;50.032;19.566;2023-12-29T04:53:18;25;;;18;;
84270;SDS011;74614;50.032;19.566;2023-12-29T04:55:21;25;;;18;;
84270;SDS011;74614;50.032;19.566;2023-12-29T04:57:21;25;;;18;;
84270;SDS011;74614;50.032;19.566;2023-12-29T04:59:21;25;;;18;;
84270;SDS011;74614;50.032;19.566;2023-12-29T05:01:19;25;;;18;;
84270;SDS011;74614;50.032;19.566;2023-12-29T05:03:22;25;;;18;;
84270;SDS011;74614;50.032;19.566;2023-12-29T05:05:19;25;;;18;;
84270;SDS011;74614;50.032;19.566;2023-12-29T05:07:26;25;;;18;;
84270;SDS011;74614;50.032;19.566;2023-12-29T05:09:22;25;;;18;;
84270;SDS011;74614;50.032;19.566;2023-12-29T05:11:21;25;;;18;;
84270;SDS011;74614;50.032;19.566;2023-12-29T05:13:19;25;;;18;;
84270;SDS011;74614;50.032;19.566;2023-12-29T05:15:22;25;;;18;;
84270;SDS011;74614;50.032;19.566;2023-12-29T05:17:19;25;;;18;;
84270;SDS011;74614;50.032;19.566;2023-12-29T05:19:21;25;;;18;;
84270;SDS011;74614;50.032;19.566;2023-12-29T05:21:21;25;;;18;;
84270;SDS011;74614;50.032;19.566;2023-12-29T05:23:20;25;;;18;;
84270;SDS011;74614;50.032;19.566;2023-12-29T05:25:18;25;;;18;;
84270;SDS011;74614;50.032;19.566;2023-12-29T05:27:20;25;;;18;;
84270;SDS011;74614;50.032;19.566;2023-12-29T05:29:20;25;;;18;;
84270;SDS011;74614;50.032;19.566;2023-12-29T05:31:21;25;;;18;;
84270;SDS011;74614;50.032;19.566;2023-12-29T05:33:19;22;;;16;;
84270;SDS011;74614;50.032;19.566;2023-12-29T05:35:20;23;;;18;;
84270;SDS011;74614;50.032;19.566;2023-12-29T05:37:18;23;;;16;;
84270;SDS011;74614;50.032;19.566;2023-12-29T05:39:21;22;;;16;;
84270;SDS011;74614;50.032;19.566;2023-12-29T05:41:18;22;;;15;;
84270;SDS011;74614;50.032;19.566;2023-12-29T05:43:21;20;;;13;;
84270;SDS011;74614;50.032;19.566;2023-12-29T05:45:19;19;;;13;;
84270;SDS011;74614;50.032;19.566;2023-12-29T05:47:21;21;;;16;;
84270;SDS011;74614;50.032;19.566;2023-12-29T05:49:23;21;;;15;;
84270;SDS011;74614;50.032;19.566;2023-12-29T05:51:21;19;;;15;;
84270;SDS011;74614;50.032;19.566;2023-12-29T05:53:19;20;;;14;;
84270;SDS011;74614;50.032;19.566;2023-12-29T05:55:21;18;;;13;;
84270;SDS011;74614;50.032;19.566;2023-12-29T05:57:18;18;;;13;;
84270;SDS011;74614;50.032;19.566;2023-12-29T05:59:32;16;;;11;;
84270;SDS011;74614;50.032;19.566;2023-12-29T06:02:22;16;;;12;;
84270;SDS011;74614;50.032;19.566;2023-12-29T06:04:21;10;;;7;;
84270;SDS011;74614;50.032;19.566;2023-12-29T06:06:23;9;;;7;;
84270;SDS011;74614;50.032;19.566;2023-12-29T06:08:22;12;;;9;;
84270;SDS011;74614;50.032;19.566;2023-12-29T06:10:24;10;;;7;;
84270;SDS011;74614;50.032;19.566;2023-12-29T06:12:22;10;;;8;;
84270;SDS011;74614;50.032;19.566;2023-12-29T06:14:25;11;;;8;;
84270;SDS011;74614;50.032;19.566;2023-12-29T06:16:23;12;;;9;;
84270;SDS011;74614;50.032;19.566;2023-12-29T06:18:22;12;;;8;;
84270;SDS011;74614;50.032;19.566;2023-12-29T06:20:22;11;;;9;;
84270;SDS011;74614;50.032;19.566;2023-12-29T06:22:21;11;;;8;;
84270;SDS011;74614;50.032;19.566;2023-12-29T06:24:21;11;;;8;;
84270;SDS011;74614;50.032;19.566;2023-12-29T06:26:22;17;;;12;;
84270;SDS011;74614;50.032;19.566;2023-12-29T06:28:25;17;;;12;;
84270;SDS011;74614;50.032;19.566;2023-12-29T06:30:22;17;;;12;;
84270;SDS011;74614;50.032;19.566;2023-12-29T06:32:23;17;;;12;;
84270;SDS011;74614;50.032;19.566;2023-12-29T06:34:26;17;;;12;;
84270;SDS011;74614;50.032;19.566;2023-12-29T06:36:24;17;;;12;;
84270;SDS011;74614;50.032;19.566;2023-12-29T06:38:21;17;;;12;;
84270;SDS011;74614;50.032;19.566;2023-12-29T06:40:21;17;;;12;;
84270;SDS011;74614;50.032;19.566;2023-12-29T06:42:22;17;;;12;;
84270;SDS011;74614;50.032;19.566;2023-12-29T06:44:23;17;;;12;;
84270;SDS011;74614;50.032;19.566;2023-12-29T06:46:22;17;;;12;;
84270;SDS011;74614;50.032;19.566;2023-12-29T06:48:21;17;;;12;;
84270;SDS011;74614;50.032;19.566;2023-12-29T06:50:21;12;;;9;;
84270;SDS011;74614;50.032;19.566;2023-12-29T06:52:22;12;;;9;;
84270;SDS011;74614;50.032;19.566;2023-12-29T06:54:22;12;;;9;;
84270;SDS011;74614;50.032;19.566;2023-12-29T06:56:21;12;;;9;;
84270;SDS011;74614;50.032;19.566;2023-12-29T06:58:24;12;;;9;;
84270;SDS011;74614;50.032;19.566;2023-12-29T07:00:23;12;;;9;;
84270;SDS011;74614;50.032;19.566;2023-12-29T07:02:22;12;;;9;;
84270;SDS011;74614;50.032;19.566;2023-12-29T07:04:23;12;;;9;;
84270;SDS011;74614;50.032;19.566;2023-12-29T07:06:22;12;;;9;;
84270;SDS011;74614;50.032;19.566;2023-12-29T07:08:25;12;;;9;;
84270;SDS011;74614;50.032;19.566;2023-12-29T07:10:22;12;;;9;;
84270;SDS011;74614;50.032;19.566;2023-12-29T07:12:23;12;;;9;;
84270;SDS011;74614;50.032;19.566;2023-12-29T07:14:21;12;;;9;;
84270;SDS011;74614;50.032;19.566;2023-12-29T07:16:25;12;;;9;;
84270;SDS011;74614;50.032;19.566;2023-12-29T07:18:21;12;;;9;;
84270;SDS011;74614;50.032;19.566;2023-12-29T07:20:22;12;;;9;;
84270;SDS011;74614;50.032;19.566;2023-12-29T07:22:22;12;;;9;;
84270;SDS011;74614;50.032;19.566;2023-12-29T07:24:22;12;;;9;;
84270;SDS011;74614;50.032;19.566;2023-12-29T07:26:22;12;;;9;;
84270;SDS011;74614;50.032;19.566;2023-12-29T07:28:21;12;;;9;;
84270;SDS011;74614;50.032;19.566;2023-12-29T07:30:21;12;;;9;;
84270;SDS011;74614;50.032;19.566;2023-12-29T07:32:24;12;;;9;;
84270;SDS011;74614;50.032;19.566;2023-12-29T07:34:22;12;;;9;;
84270;SDS011;74614;50.032;19.566;2023-12-29T07:36:20;12;;;9;;
84270;SDS011;74614;50.032;19.566;2023-12-29T07:38:23;12;;;9;;
84270;SDS011;74614;50.032;19.566;2023-12-29T07:40:23;12;;;9;;
84270;SDS011;74614;50.032;19.566;2023-12-29T07:42:22;12;;;9;;
84270;SDS011;74614;50.032;19.566;2023-12-29T07:44:23;12;;;9;;
84270;SDS011;74614;50.032;19.566;2023-12-29T07:46:27;12;;;9;;
84270;SDS011;74614;50.032;19.566;2023-12-29T07:48:21;12;;;9;;
84270;SDS011;74614;50.032;19.566;2023-12-29T07:50:23;12;;;9;;
84270;SDS011;74614;50.032;19.566;2023-12-29T07:52:21;12;;;9;;
84270;SDS011;74614;50.032;19.566;2023-12-29T07:54:22;12;;;9;;
84270;SDS011;74614;50.032;19.566;2023-12-29T07:56:22;12;;;9;;
84270;SDS011;74614;50.032;19.566;2023-12-29T07:58:21;12;;;9;;
84270;SDS011;74614;50.032;19.566;2023-12-29T08:00:24;12;;;9;;
84270;SDS011;74614;50.032;19.566;2023-12-29T08:02:22;12;;;9;;
84270;SDS011;74614;50.032;19.566;2023-12-29T08:04:29;12;;;9;;
84270;SDS011;74614;50.032;19.566;2023-12-29T08:06:25;12;;;9;;
84270;SDS011;74614;50.032;19.566;2023-12-29T08:08:23;12;;;9;;
84270;SDS011;74614;50.032;19.566;2023-12-29T08:10:25;12;;;9;;
84270;SDS011;74614;50.032;19.566;2023-12-29T08:12:22;12;;;9;;
84270;SDS011;74614;50.032;19.566;2023-12-29T08:14:22;12;;;9;;
84270;SDS011;74614;50.032;19.566;2023-12-29T08:16:22;12;;;9;;
84270;SDS011;74614;50.032;19.566;2023-12-29T08:18:23;12;;;9;;
84270;SDS011;74614;50.032;19.566;2023-12-29T08:20:26;12;;;9;;
84270;SDS011;74614;50.032;19.566;2023-12-29T08:22:22;12;;;9;;
84270;SDS011;74614;50.032;19.566;2023-12-29T08:24:24;12;;;9;;
84270;SDS011;74614;50.032;19.566;2023-12-29T08:26:25;12;;;9;;
84270;SDS011;74614;50.032;19.566;2023-12-29T08:28:21;12;;;9;;
84270;SDS011;74614;50.032;19.566;2023-12-29T08:30:21;4;;;3;;
84270;SDS011;74614;50.032;19.566;2023-12-29T08:32:21;4;;;2;;
84270;SDS011;74614;50.032;19.566;2023-12-29T08:34:21;4;;;2;;
84270;SDS011;74614;50.032;19.566;2023-12-29T08:36:21;4;;;3;;
84270;SDS011;74614;50.032;19.566;2023-12-29T08:38:23;4;;;3;;
84270;SDS011;74614;50.032;19.566;2023-12-29T08:40:23;4;;;2;;
84270;SDS011;74614;50.032;19.566;2023-12-29T08:42:23;3;;;2;;
84270;SDS011;74614;50.032;19.566;2023-12-29T08:44:23;4;;;3;;
84270;SDS011;74614;50.032;19.566;2023-12-29T08:46:22;4;;;2;;
84270;SDS011;74614;50.032;19.566;2023-12-29T08:48:23;4;;;2;;
84270;SDS011;74614;50.032;19.566;2023-12-29T08:50:24;4;;;2;;
84270;SDS011;74614;50.032;19.566;2023-12-29T08:52:22;3;;;3;;
84270;SDS011;74614;50.032;19.566;2023-12-29T08:54:21;4;;;3;;
84270;SDS011;74614;50.032;19.566;2023-12-29T08:56:21;4;;;3;;
84270;SDS011;74614;50.032;19.566;2023-12-29T08:58:21;3;;;2;;
84270;SDS011;74614;50.032;19.566;2023-12-29T09:00:23;4;;;2;;
84270;SDS011;74614;50.032;19.566;2023-12-29T09:02:20;4;;;2;;
84270;SDS011;74614;50.032;19.566;2023-12-29T09:04:21;3;;;2;;
84270;SDS011;74614;50.032;19.566;2023-12-29T09:06:22;4;;;2;;
84270;SDS011;74614;50.032;19.566;2023-12-29T09:08:23;3;;;3;;
84270;SDS011;74614;50.032;19.566;2023-12-29T09:10:25;4;;;3;;
84270;SDS011;74614;50.032;19.566;2023-12-29T09:12:22;4;;;3;;
84270;SDS011;74614;50.032;19.566;2023-12-29T09:14:21;3;;;3;;
84270;SDS011;74614;50.032;19.566;2023-12-29T09:16:22;3;;;3;;
84270;SDS011;74614;50.032;19.566;2023-12-29T09:18:21;3;;;3;;
84270;SDS011;74614;50.032;19.566;2023-12-29T09:20:21;3;;;3;;
84270;SDS011;74614;50.032;19.566;2023-12-29T09:22:22;3;;;3;;
84270;SDS011;74614;50.032;19.566;2023-12-29T09:24:27;3;;;3;;
84270;SDS011;74614;50.032;19.566;2023-12-29T09:26:25;3;;;3;;
84270;SDS011;74614;50.032;19.566;2023-12-29T09:28:23;3;;;3;;
84270;SDS011;74614;50.032;19.566;2023-12-29T09:30:21;3;;;3;;
84270;SDS011;74614;50.032;19.566;2023-12-29T09:32:21;3;;;3;;
84270;SDS011;74614;50.032;19.566;2023-12-29T09:34:22;3;;;3;;
84270;SDS011;74614;50.032;19.566;2023-12-29T09:36:22;3;;;3;;
84270;SDS011;74614;50.032;19.566;2023-12-29T09:38:24;3;;;3;;
84270;SDS011;74614;50.032;19.566;2023-12-29T09:40:23;4;;;2;;
84270;SDS011;74614;50.032;19.566;2023-12-29T09:42:24;4;;;2;;
84270;SDS011;74614;50.032;19.566;2023-12-29T09:44:22;4;;;2;;
84270;SDS011;74614;50.032;19.566;2023-12-29T09:46:22;4;;;3;;
84270;SDS011;74614;50.032;19.566;2023-12-29T09:48:22;3;;;2;;
84270;SDS011;74614;50.032;19.566;2023-12-29T09:50:22;3;;;3;;
84270;SDS011;74614;50.032;19.566;2023-12-29T09:52:21;3;;;2;;
84270;SDS011;74614;50.032;19.566;2023-12-29T09:54:21;3;;;2;;
84270;SDS011;74614;50.032;19.566;2023-12-29T09:56:26;4;;;2;;
84270;SDS011;74614;50.032;19.566;2023-12-29T09:58:21;3;;;2;;
84270;SDS011;74614;50.032;19.566;2023-12-29T10:00:23;4;;;2;;
84270;SDS011;74614;50.032;19.566;2023-12-29T10:02:24;3;;;2;;
84270;SDS011;74614;50.032;19.566;2023-12-29T10:05:08;3;;;2;;
84270;SDS011;74614;50.032;19.566;2023-12-29T10:07:25;3;;;2;;
84270;SDS011;74614;50.032;19.566;2023-12-29T10:09:23;4;;;2;;
84270;SDS011;74614;50.032;19.566;2023-12-29T10:11:23;3;;;2;;
84270;SDS011;74614;50.032;19.566;2023-12-29T10:13:21;4;;;2;;
84270;SDS011;74614;50.032;19.566;2023-12-29T10:15:26;4;;;3;;
84270;SDS011;74614;50.032;19.566;2023-12-29T10:17:27;4;;;2;;
84270;SDS011;74614;50.032;19.566;2023-12-29T10:20:25;4;;;2;;
84270;SDS011;74614;50.032;19.566;2023-12-29T10:23:28;4;;;2;;
84270;SDS011;74614;50.032;19.566;2023-12-29T10:26:20;3;;;2;;
84270;SDS011;74614;50.032;19.566;2023-12-29T10:28:18;4;;;2;;
84270;SDS011;74614;50.032;19.566;2023-12-29T10:30:20;3;;;2;;
84270;SDS011;74614;50.032;19.566;2023-12-29T10:32:19;4;;;2;;
84270;SDS011;74614;50.032;19.566;2023-12-29T10:34:19;3;;;3;;
84270;SDS011;74614;50.032;19.566;2023-12-29T10:36:24;3;;;3;;
84270;SDS011;74614;50.032;19.566;2023-12-29T10:38:20;3;;;3;;
84270;SDS011;74614;50.032;19.566;2023-12-29T10:40:19;3;;;3;;
84270;SDS011;74614;50.032;19.566;2023-12-29T10:42:20;3;;;2;;
84270;SDS011;74614;50.032;19.566;2023-12-29T10:44:18;4;;;3;;
84270;SDS011;74614;50.032;19.566;2023-12-29T10:46:19;3;;;2;;
84270;SDS011;74614;50.032;19.566;2023-12-29T10:48:22;3;;;2;;
84270;SDS011;74614;50.032;19.566;2023-12-29T10:50:20;3;;;2;;
84270;SDS011;74614;50.032;19.566;2023-12-29T10:52:19;3;;;2;;
84270;SDS011;74614;50.032;19.566;2023-12-29T10:54:19;3;;;2;;
84270;SDS011;74614;50.032;19.566;2023-12-29T10:56:22;4;;;3;;
84270;SDS011;74614;50.032;19.566;2023-12-29T10:58:23;4;;;2;;
84270;SDS011;74614;50.032;19.566;2023-12-29T11:00:22;5;;;3;;
84270;SDS011;74614;50.032;19.566;2023-12-29T11:02:20;5;;;4;;
84270;SDS011;74614;50.032;19.566;2023-12-29T11:04:22;5;;;3;;
84270;SDS011;74614;50.032;19.566;2023-12-29T11:06:20;5;;;3;;
84270;SDS011;74614;50.032;19.566;2023-12-29T11:08:21;4;;;3;;
84270;SDS011;74614;50.032;19.566;2023-12-29T11:10:21;5;;;3;;
84270;SDS011;74614;50.032;19.566;2023-12-29T11:12:19;4;;;2;;
84270;SDS011;74614;50.032;19.566;2023-12-29T11:14:19;5;;;3;;
84270;SDS011;74614;50.032;19.566;2023-12-29T11:16:19;4;;;3;;
84270;SDS011;74614;50.032;19.566;2023-12-29T11:18:18;5;;;3;;
84270;SDS011;74614;50.032;19.566;2023-12-29T11:20:19;5;;;4;;
84270;SDS011;74614;50.032;19.566;2023-12-29T11:22:19;5;;;3;;
84270;SDS011;74614;50.032;19.566;2023-12-29T11:24:19;4;;;3;;
84270;SDS011;74614;50.032;19.566;2023-12-29T11:26:19;4;;;3;;
84270;SDS011;74614;50.032;19.566;2023-12-29T11:28:19;4;;;3;;
84270;SDS011;74614;50.032;19.566;2023-12-29T11:30:19;4;;;2;;
84270;SDS011;74614;50.032;19.566;2023-12-29T11:32:25;4;;;3;;
84270;SDS011;74614;50.032;19.566;2023-12-29T11:35:27;4;;;3;;
84270;SDS011;74614;50.032;19.566;2023-12-29T11:38:24;4;;;3;;
84270;SDS011;74614;50.032;19.566;2023-12-29T11:41:25;4;;;2;;
84270;SDS011;74614;50.032;19.566;2023-12-29T11:43:24;4;;;3;;
84270;SDS011;74614;50.032;19.566;2023-12-29T11:45:23;3;;;2;;
84270;SDS011;74614;50.032;19.566;2023-12-29T11:47:34;4;;;4;;
84270;SDS011;74614;50.032;19.566;2023-12-29T11:49:22;4;;;2;;
84270;SDS011;74614;50.032;19.566;2023-12-29T11:51:27;4;;;3;;
84270;SDS011;74614;50.032;19.566;2023-12-29T11:53:30;4;;;2;;
84270;SDS011;74614;50.032;19.566;2023-12-29T11:55:28;5;;;2;;
84270;SDS011;74614;50.032;19.566;2023-12-29T11:57:31;5;;;2;;
84270;SDS011;74614;50.032;19.566;2023-12-29T11:59:30;4;;;3;;
84270;SDS011;74614;50.032;19.566;2023-12-29T12:01:40;4;;;2;;
84270;SDS011;74614;50.032;19.566;2023-12-29T12:04:40;5;;;3;;
84270;SDS011;74614;50.032;19.566;2023-12-29T12:08:03;5;;;3;;
84270;SDS011;74614;50.032;19.566;2023-12-29T12:10:29;4;;;2;;
84270;SDS011;74614;50.032;19.566;2023-12-29T12:13:42;4;;;2;;
84270;SDS011;74614;50.032;19.566;2023-12-29T12:16:46;4;;;3;;
84270;SDS011;74614;50.032;19.566;2023-12-29T12:19:30;4;;;3;;
84270;SDS011;74614;50.032;19.566;2023-12-29T12:21:26;4;;;3;;
84270;SDS011;74614;50.032;19.566;2023-12-29T12:23:24;4;;;2;;
84270;SDS011;74614;50.032;19.566;2023-12-29T12:25:29;3;;;3;;
84270;SDS011;74614;50.032;19.566;2023-12-29T12:27:29;4;;;3;;
84270;SDS011;74614;50.032;19.566;2023-12-29T12:29:23;5;;;4;;
84270;SDS011;74614;50.032;19.566;2023-12-29T12:31:25;5;;;3;;
84270;SDS011;74614;50.032;19.566;2023-12-29T12:33:22;4;;;2;;
84270;SDS011;74614;50.032;19.566;2023-12-29T12:35:25;5;;;3;;
84270;SDS011;74614;50.032;19.566;2023-12-29T12:37:25;4;;;3;;
84270;SDS011;74614;50.032;19.566;2023-12-29T12:39:37;3;;;2;;
84270;SDS011;74614;50.032;19.566;2023-12-29T12:41:26;4;;;3;;
84270;SDS011;74614;50.032;19.566;2023-12-29T12:43:26;5;;;2;;
84270;SDS011;74614;50.032;19.566;2023-12-29T12:45:21;3;;;2;;
84270;SDS011;74614;50.032;19.566;2023-12-29T12:47:25;4;;;3;;
84270;SDS011;74614;50.032;19.566;2023-12-29T12:49:25;4;;;3;;
84270;SDS011;74614;50.032;19.566;2023-12-29T12:51:25;5;;;3;;
84270;SDS011;74614;50.032;19.566;2023-12-29T12:53:24;3;;;3;;
84270;SDS011;74614;50.032;19.566;2023-12-29T12:55:29;4;;;3;;
84270;SDS011;74614;50.032;19.566;2023-12-29T12:57:21;5;;;3;;
84270;SDS011;74614;50.032;19.566;2023-12-29T12:59:27;5;;;4;;
84270;SDS011;74614;50.032;19.566;2023-12-29T13:01:23;4;;;3;;
84270;SDS011;74614;50.032;19.566;2023-12-29T13:03:24;4;;;3;;
84270;SDS011;74614;50.032;19.566;2023-12-29T13:05:26;4;;;3;;